Time;durP1;ratioP1;P1;durP2;ratioP2;P2;SDS_P1;SDS_P2;PMS_P1;PMS_P2;Temp;Humidity;BMP_temperature;BMP_pressure;BME280_temperature;BME280_humidity;BME280_pressure;Samples;Min_cycle;Max_cycle;Signal;HPM_P1;HPM_P2
2022/09/11 00:00:16;;;;;;;;;;;;;;;13.85;85.17;96968.66;30001;983;1884;-66
2022/09/11 00:00:48;;;;;;;;;;;;;;;13.83;85.02;96966.25;30001;983;1880;-67
2022/09/11 00:01:22;;;;;;;;;;;;;;;13.81;85.72;96970.41;30001;982;1884;-65
2022/09/11 00:01:54;;;;;;;;;;;;;;;13.77;86.50;96975.66;30001;982;1867;-63
2022/09/11 00:02:25;;;;;;;;;;;;;;;13.74;85.88;96962.66;30001;982;1876;-66
2022/09/11 00:02:56;;;;;;;;;;;;;;;13.75;85.64;96961.53;30001;982;1880;-66
2022/09/11 00:03:28;;;;;;;;;;;;;;;13.73;86.28;96969.22;30001;982;1885;-65
2022/09/11 00:04:00;;;;;;;;;;;;;;;13.70;87.13;96964.38;30001;982;1880;-67
2022/09/11 00:04:35;;;;;;;;;;;;;;;13.68;87.37;96966.63;30001;983;1871;-68
2022/09/11 00:05:07;;;;;;;;;;;;;;;13.65;87.34;96959.87;30001;983;1871;-66
2022/09/11 00:05:48;;;;;;;;;;;;;;;13.65;86.69;96961.78;30001;983;1884;-66
2022/09/11 00:06:21;;;;;;;;;;;;;;;13.71;86.61;96966.00;30001;983;1867;-63
2022/09/11 00:06:52;;;;;;;;;;;;;;;13.72;85.74;96962.16;30001;983;1875;-65
2022/09/11 00:07:26;;;;;;;;;;;;;;;13.74;85.73;96960.72;30001;983;1880;-64
2022/09/11 00:07:57;;;;;;;;;;;;;;;13.76;85.79;96971.31;30001;983;1885;-68
2022/09/11 00:08:30;;;;;;;;;;;;;;;13.84;85.07;96962.41;30001;982;1880;-69
2022/09/11 00:09:03;;;;;;;;;;;;;;;13.89;84.37;96954.06;30001;982;1884;-66
2022/09/11 00:09:35;;;;;;;;;;;;;;;13.88;84.31;96955.19;30001;982;1880;-66
2022/09/11 00:10:06;;;;;;;;;;;;;;;13.91;84.16;96951.03;30001;982;1871;-63
2022/09/11 00:10:41;;;;;;;;;;;;;;;13.90;84.24;96960.31;30001;982;1872;-64
2022/09/11 00:11:17;;;;;;;;;;;;;;;13.92;84.17;96956.16;30001;983;1884;-63
2022/09/11 00:11:48;;;;;;;;;;;;;;;13.94;83.99;96953.94;30001;983;1879;-66
2022/09/11 00:12:20;;;;;;;;;;;;;;;13.93;83.77;96956.97;30001;983;1884;-65
2022/09/11 00:12:52;;;;;;;;;;;;;;;13.89;84.53;96956.78;30001;983;1880;-65
2022/09/11 00:13:23;;;;;;;;;;;;;;;13.90;83.83;96952.94;30001;983;1884;-66
2022/09/11 00:13:55;;;;;;;;;;;;;;;13.89;84.15;96955.97;30001;983;1880;-64
2022/09/11 00:14:27;;;;;;;;;;;;;;;13.87;84.14;96956.28;30001;983;1884;-66
2022/09/11 00:14:59;;;;;;;;;;;;;;;13.84;84.64;96951.50;30001;983;1880;-65
2022/09/11 00:15:30;;;;;;;;;;;;;;;13.82;84.72;96950.19;30001;983;1871;-66
2022/09/11 00:16:03;;;;;;;;;;;;;;;13.80;84.93;96947.78;30001;982;1871;-66
2022/09/11 00:16:36;;;;;;;;;;;;;;;13.77;84.94;96953.84;30001;982;1885;-64
2022/09/11 00:17:07;;;;;;;;;;;;;;;13.76;85.42;96952.25;30001;982;1880;-65
2022/09/11 00:17:38;;;;;;;;;;;;;;;13.78;85.15;96950.00;30001;982;1884;-67
2022/09/11 00:18:10;;;;;;;;;;;;;;;13.81;84.69;96954.84;30001;982;1880;-65
2022/09/11 00:18:41;;;;;;;;;;;;;;;13.85;84.36;96950.38;30001;983;1884;-65
2022/09/11 00:19:17;;;;;;;;;;;;;;;13.86;84.44;96957.41;30001;983;1879;-64
2022/09/11 00:19:48;;;;;;;;;;;;;;;13.86;84.11;96951.97;30001;983;1884;-67
2022/09/11 00:20:20;;;;;;;;;;;;;;;13.85;84.25;96955.81;30001;983;1880;-68
2022/09/11 00:20:52;;;;;;;;;;;;;;;13.85;84.28;96955.03;30001;983;1871;-65
2022/09/11 00:21:24;;;;;;;;;;;;;;;13.84;84.33;96956.94;30001;983;1871;-65
2022/09/11 00:21:56;;;;;;;;;;;;;;;13.83;84.76;96957.25;30001;983;1884;-66
2022/09/11 00:22:26;;;;;;;;;;;;;;;13.81;85.27;96946.66;30001;983;1880;-66
2022/09/11 00:23:00;;;;;;;;;;;;;;;13.85;84.41;96950.38;30001;983;1884;-65
2022/09/11 00:23:32;;;;;;;;;;;;;;;13.85;84.54;96955.03;30001;983;1880;-66
2022/09/11 00:24:03;;;;;;;;;;;;;;;13.85;84.48;96947.66;30001;982;1885;-67
2022/09/11 00:24:34;;;;;;;;;;;;;;;13.84;85.73;96954.22;30001;982;1880;-65
2022/09/11 00:25:05;;;;;;;;;;;;;;;13.88;84.51;96955.19;30001;982;1885;-67
2022/09/11 00:25:39;;;;;;;;;;;;;;;13.87;84.65;96956.28;30001;982;1881;-65
2022/09/11 00:26:10;;;;;;;;;;;;;;;13.85;84.66;96955.81;30001;983;1871;-66
2022/09/11 00:26:41;;;;;;;;;;;;;;;13.83;84.85;96952.59;30001;983;1871;-65
2022/09/11 00:27:12;;;;;;;;;;;;;;;13.80;84.95;96964.12;30001;983;1884;-65
2022/09/11 00:27:43;;;;;;;;;;;;;;;13.84;84.68;96948.75;30001;983;1880;-65
2022/09/11 00:28:18;;;;;;;;;;;;;;;13.89;84.13;96955.97;30001;983;1884;-66
2022/09/11 00:28:49;;;;;;;;;;;;;;;13.94;83.82;96953.94;30001;983;1880;-63
2022/09/11 00:29:23;;;;;;;;;;;;;;;14.00;83.65;96957.34;30001;983;1884;-66
2022/09/11 00:29:54;;;;;;;;;;;;;;;14.03;83.53;96956.72;30001;983;1880;-65
2022/09/11 00:30:25;;;;;;;;;;;;;;;14.03;83.13;96957.53;30001;983;1884;-68
2022/09/11 00:31:00;;;;;;;;;;;;;;;14.05;82.97;96954.47;30001;967;1903;-67
2022/09/11 00:31:31;;;;;;;;;;;;;;;14.01;83.84;96951.56;30001;982;1871;-65
2022/09/11 00:32:03;;;;;;;;;;;;;;;13.97;83.86;96952.50;30001;982;1871;-64
2022/09/11 00:32:33;;;;;;;;;;;;;;;13.96;83.71;96954.44;30001;982;1884;-63
2022/09/11 00:33:04;;;;;;;;;;;;;;;13.95;83.74;96954.75;30001;982;1880;-66
2022/09/11 00:33:36;;;;;;;;;;;;;;;13.90;83.79;96958.41;30001;982;1885;-67
2022/09/11 00:34:06;;;;;;;;;;;;;;;13.88;84.42;96949.72;30001;983;1879;-66
2022/09/11 00:34:38;;;;;;;;;;;;;;;13.85;84.38;96958.56;30001;987;1876;-65
2022/09/11 00:35:08;;;;;;;;;;;;;;;13.82;84.87;96945.53;30001;983;1884;-67
2022/09/11 00:35:40;;;;;;;;;;;;;;;13.79;85.24;96951.63;30001;983;1880;-66
2022/09/11 00:36:12;;;;;;;;;;;;;;;13.76;85.29;96952.25;30001;983;1884;-65
2022/09/11 00:36:43;;;;;;;;;;;;;;;13.74;85.16;96954.47;30001;983;1867;-66
2022/09/11 00:37:14;;;;;;;;;;;;;;;13.75;85.45;96950.63;30001;983;1875;-65
2022/09/11 00:37:46;;;;;;;;;;;;;;;13.75;85.10;96950.63;30001;983;1880;-67
2022/09/11 00:38:17;;;;;;;;;;;;;;;13.75;85.02;96945.19;30001;983;1884;-67
2022/09/11 00:38:48;;;;;;;;;;;;;;;13.75;85.00;96953.34;30001;982;1880;-67
2022/09/11 00:39:20;;;;;;;;;;;;;;;13.74;85.41;96954.47;30001;982;1884;-63
2022/09/11 00:39:51;;;;;;;;;;;;;;;13.74;85.31;96951.75;30001;982;1880;-66
2022/09/11 00:40:24;;;;;;;;;;;;;;;13.74;85.66;96954.47;30001;982;1885;-66
2022/09/11 00:40:57;;;;;;;;;;;;;;;13.73;85.67;96947.41;30001;986;1871;-65
2022/09/11 00:41:30;;;;;;;;;;;;;;;13.72;85.78;96952.06;30001;983;1884;-66
2022/09/11 00:42:01;;;;;;;;;;;;;;;13.71;85.69;96950.44;30001;983;1866;-67
2022/09/11 00:42:35;;;;;;;;;;;;;;;13.73;85.79;96944.69;30001;985;1875;-67
2022/09/11 00:43:09;;;;;;;;;;;;;;;13.75;85.64;96953.34;30001;983;1880;-67
2022/09/11 00:44:00;;;;;;;;;;;;;;;13.82;85.08;96956.44;30001;983;1884;-64
2022/09/11 00:44:50;;;;;;;;;;;;;;;13.91;84.72;96948.28;30001;983;1880;-65
2022/09/11 00:45:24;;;;;;;;;;;;;;;13.83;85.63;96947.16;30001;982;1880;-64
2022/09/11 00:45:59;;;;;;;;;;;;;;;13.82;85.19;96948.28;30001;982;1880;-67
2022/09/11 00:46:38;;;;;;;;;;;;;;;13.81;84.81;96949.38;30001;982;1884;-65
2022/09/11 00:47:13;;;;;;;;;;;;;;;13.81;84.83;96946.66;30001;982;1868;-63
2022/09/11 00:47:45;;;;;;;;;;;;;;;13.80;85.00;96944.25;30001;982;1876;-66
2022/09/11 00:48:19;;;;;;;;;;;;;;;13.78;85.19;96944.56;30001;982;1880;-67
2022/09/11 00:48:50;;;;;;;;;;;;;;;13.76;85.07;96949.50;30001;983;1884;-66
2022/09/11 00:49:48;;;;;;;;;;;;;;;13.76;85.18;96952.25;30001;983;1879;-63
2022/09/11 00:50:22;;;;;;;;;;;;;;;13.84;84.50;96943.31;30001;983;1879;-62
2022/09/11 00:50:54;;;;;;;;;;;;;;;13.86;84.23;96951.97;30001;983;1880;-65
2022/09/11 00:51:28;;;;;;;;;;;;;;;13.84;84.64;96948.75;30001;983;1884;-65
2022/09/11 00:52:07;;;;;;;;;;;;;;;13.80;84.57;96947.78;30001;983;1880;-65
2022/09/11 00:52:40;;;;;;;;;;;;;;;13.79;84.70;96951.63;30001;964;1891;-63
2022/09/11 00:53:13;;;;;;;;;;;;;;;13.77;84.92;96948.41;30001;982;1871;-64
2022/09/11 00:53:45;;;;;;;;;;;;;;;13.75;85.06;96948.72;30001;982;1884;-63
2022/09/11 00:54:19;;;;;;;;;;;;;;;13.76;84.84;96941.34;30001;982;1881;-66
2022/09/11 00:54:55;;;;;;;;;;;;;;;13.74;84.95;96944.37;30001;982;1885;-65
2022/09/11 00:55:30;;;;;;;;;;;;;;;13.78;84.82;96952.72;30001;982;1881;-66
2022/09/11 00:56:03;;;;;;;;;;;;;;;13.78;84.83;96950.00;30001;982;1885;-64
2022/09/11 00:56:34;;;;;;;;;;;;;;;13.78;84.84;96955.47;30001;983;1879;-64
2022/09/11 00:57:06;;;;;;;;;;;;;;;13.76;85.01;96946.78;30001;983;1884;-63
2022/09/11 00:57:41;;;;;;;;;;;;;;;13.80;84.73;96949.69;30001;983;1880;-64
2022/09/11 00:58:14;;;;;;;;;;;;;;;13.78;85.36;96944.56;30001;983;1871;-66
2022/09/11 00:58:47;;;;;;;;;;;;;;;13.83;84.63;96957.25;30001;983;1871;-63
2022/09/11 00:59:24;;;;;;;;;;;;;;;13.86;84.32;96951.97;30001;983;1884;-63
2022/09/11 00:59:57;;;;;;;;;;;;;;;13.90;84.06;96947.50;30001;983;1880;-63
2022/09/11 01:00:28;;;;;;;;;;;;;;;13.94;83.86;96953.94;30001;982;1884;-65
2022/09/11 01:00:59;;;;;;;;;;;;;;;13.92;84.19;96949.91;30001;973;1885;-64
2022/09/11 01:01:30;;;;;;;;;;;;;;;13.92;84.02;96950.72;30001;982;1876;-63
2022/09/11 01:02:01;;;;;;;;;;;;;;;13.93;83.85;96949.59;30001;982;1880;-63
2022/09/11 01:02:34;;;;;;;;;;;;;;;13.91;83.96;96949.09;30001;982;1885;-63
2022/09/11 01:03:05;;;;;;;;;;;;;;;13.96;83.85;96945.44;30001;982;1868;-59
2022/09/11 01:03:35;;;;;;;;;;;;;;;13.99;83.74;96956.53;30001;982;1876;-66
2022/09/11 01:04:08;;;;;;;;;;;;;;;13.96;83.41;96951.69;30001;983;1880;-65
2022/09/11 01:04:38;;;;;;;;;;;;;;;13.92;84.32;96950.72;30001;983;1884;-63
2022/09/11 01:05:11;;;;;;;;;;;;;;;13.91;84.20;96959.19;30001;983;1880;-63
2022/09/11 01:05:43;;;;;;;;;;;;;;;13.90;84.60;96947.50;30001;983;1884;-62
2022/09/11 01:06:15;;;;;;;;;;;;;;;13.91;83.98;96953.75;30002;983;1880;-65
2022/09/11 01:06:46;;;;;;;;;;;;;;;13.91;84.38;96949.09;30002;983;1884;-63
2022/09/11 01:07:18;;;;;;;;;;;;;;;13.93;84.16;96952.31;30002;983;1867;-65
2022/09/11 01:07:53;;;;;;;;;;;;;;;13.89;84.15;96951.34;30002;983;1875;-66
2022/09/11 01:08:24;;;;;;;;;;;;;;;13.87;84.77;96950.84;30002;982;1880;-66
2022/09/11 01:08:54;;;;;;;;;;;;;;;13.87;84.96;96953.56;30002;976;1801;-62
2022/09/11 01:09:26;;;;;;;;;;;;;;;13.87;84.46;96942.66;30002;982;1880;-63
2022/09/11 01:09:58;;;;;;;;;;;;;;;13.85;84.91;96949.56;30002;982;1885;-63
2022/09/11 01:10:36;;;;;;;;;;;;;;;13.83;84.74;96946.34;30002;982;1880;-65
2022/09/11 01:11:38;;;;;;;;;;;;;;;13.80;85.79;96950.50;30002;982;1885;-63
2022/09/11 01:12:32;;;;;;;;;;;;;;;13.72;86.05;96951.25;30002;983;1876;-65
2022/09/11 01:13:08;;;;;;;;;;;;;;;13.79;85.12;96946.16;30002;983;1866;-65
2022/09/11 01:14:05;;;;;;;;;;;;;;;13.78;85.36;96950.00;30002;983;1871;-63
2022/09/11 01:14:43;;;;;;;;;;;;;;;13.75;85.90;96947.91;30002;983;1880;-63
2022/09/11 01:15:20;;;;;;;;;;;;;;;13.72;86.28;96951.25;30002;983;1880;-65
2022/09/11 01:16:02;;;;;;;;;;;;;;;13.70;86.48;96953.47;30002;982;1884;-66
2022/09/11 01:16:38;;;;;;;;;;;;;;;13.72;86.21;96951.25;30002;982;1880;-65
2022/09/11 01:17:34;;;;;;;;;;;;;;;13.78;85.98;96952.72;30002;982;1884;-64
2022/09/11 01:18:20;;;;;;;;;;;;;;;13.81;85.48;96946.66;30002;983;1862;-63
2022/09/11 01:19:07;;;;;;;;;;;;;;;13.84;85.36;96948.75;30002;983;1875;-64
2022/09/11 01:19:56;;;;;;;;;;;;;;;13.81;85.50;96943.13;30002;983;1866;-65
2022/09/11 01:20:47;;;;;;;;;;;;;;;13.80;85.64;96946.97;30002;983;1853;-61
2022/09/11 01:21:35;;;;;;;;;;;;;;;13.78;85.96;96947.28;30002;983;1875;-63
2022/09/11 01:22:24;;;;;;;;;;;;;;;13.77;86.02;96942.94;30002;983;1885;-64
2022/09/11 01:23:20;;;;;;;;;;;;;;;13.74;85.83;96944.37;30002;983;1872;-62
2022/09/11 01:23:59;;;;;;;;;;;;;;;13.73;85.50;96939.22;30002;982;1884;-63
2022/09/11 01:24:50;;;;;;;;;;;;;;;13.72;86.28;96945.78;30002;982;1880;-65
2022/09/11 01:25:30;;;;;;;;;;;;;;;13.70;86.79;96946.09;30002;982;1871;-63
2022/09/11 01:26:21;;;;;;;;;;;;;;;13.67;86.57;96945.91;30002;983;1871;-63
2022/09/11 01:27:30;;;;;;;;;;;;;;;13.63;87.42;96947.66;30002;983;1879;-63
2022/09/11 01:28:06;;;;;;;;;;;;;;;13.58;87.44;96939.59;30002;983;1862;-63
2022/09/11 01:28:43;;;;;;;;;;;;;;;13.59;87.60;96942.00;30002;983;1875;-63
2022/09/11 01:29:28;;;;;;;;;;;;;;;13.59;87.48;96946.66;30002;983;1880;-62
2022/09/11 01:30:01;;;;;;;;;;;;;;;13.61;87.61;96944.44;30002;983;1884;-63
2022/09/11 01:30:36;;;;;;;;;;;;;;;13.60;88.01;96942.81;30002;983;1880;-63
2022/09/11 01:31:09;;;;;;;;;;;;;;;13.59;88.12;96943.94;30002;982;1884;-65
2022/09/11 01:31:45;;;;;;;;;;;;;;;13.59;87.96;96941.22;30002;982;1880;-64
2022/09/11 01:32:40;;;;;;;;;;;;;;;13.58;88.01;96945.06;30002;982;1884;-64
2022/09/11 01:33:27;;;;;;;;;;;;;;;13.57;87.95;96946.97;30002;983;1866;-63
2022/09/11 01:34:01;;;;;;;;;;;;;;;13.59;88.03;96952.13;30002;983;1875;-63
2022/09/11 01:34:35;;;;;;;;;;;;;;;13.58;87.91;96945.06;30002;983;1879;-64
2022/09/11 01:35:11;;;;;;;;;;;;;;;13.57;88.09;96943.44;30002;983;1884;-64
2022/09/11 01:35:58;;;;;;;;;;;;;;;13.56;88.07;96948.09;30002;983;1880;-64
2022/09/11 01:36:34;;;;;;;;;;;;;;;13.60;87.85;96949.06;30002;983;1884;-68
2022/09/11 01:37:07;;;;;;;;;;;;;;;13.68;86.85;96955.72;30002;983;1880;-63
2022/09/11 01:37:47;;;;;;;;;;;;;;;13.69;86.83;96954.59;30002;971;1890;-58
2022/09/11 01:38:38;;;;;;;;;;;;;;;13.68;86.72;96951.06;30002;982;1859;-64
2022/09/11 01:39:09;;;;;;;;;;;;;;;13.66;87.39;96958.75;30002;982;1880;-65
2022/09/11 01:39:44;;;;;;;;;;;;;;;13.63;87.52;96947.66;30002;982;1881;-65
2022/09/11 01:40:19;;;;;;;;;;;;;;;13.59;88.27;96960.28;30002;982;1885;-65
2022/09/11 01:40:55;;;;;;;;;;;;;;;13.54;88.41;96946.78;30002;983;1866;-62
2022/09/11 01:41:29;;;;;;;;;;;;;;;13.52;88.42;96957.19;30002;983;1875;-62
2022/09/11 01:42:03;;;;;;;;;;;;;;;13.51;88.04;96953.69;30002;983;1866;-64
2022/09/11 01:42:35;;;;;;;;;;;;;;;13.52;88.48;96949.00;30002;983;1875;-64
2022/09/11 01:43:12;;;;;;;;;;;;;;;13.57;88.37;96959.78;30002;983;1880;-65
2022/09/11 01:43:50;;;;;;;;;;;;;;;13.60;88.01;96957.25;30002;983;1884;-63
2022/09/11 01:44:26;;;;;;;;;;;;;;;13.61;87.66;96955.34;30002;983;1867;-63
2022/09/11 01:44:57;;;;;;;;;;;;;;;13.61;87.65;96960.78;30002;983;1876;-64
2022/09/11 01:45:30;;;;;;;;;;;;;;;13.59;87.68;96963.03;30002;983;1827;-62
2022/09/11 01:46:02;;;;;;;;;;;;;;;13.58;87.83;96962.22;30002;982;1876;-63
2022/09/11 01:46:36;;;;;;;;;;;;;;;13.62;87.75;96956.94;30002;982;1880;-64
2022/09/11 01:47:09;;;;;;;;;;;;;;;13.66;87.13;96958.75;30002;985;1884;-63
2022/09/11 01:47:41;;;;;;;;;;;;;;;13.66;86.88;96958.75;30002;982;1881;-63
2022/09/11 01:48:15;;;;;;;;;;;;;;;13.64;87.01;96955.53;30002;982;1885;-63
2022/09/11 01:48:48;;;;;;;;;;;;;;;13.67;87.21;96957.63;30002;983;1867;-64
2022/09/11 01:49:26;;;;;;;;;;;;;;;13.66;87.42;96957.94;30002;983;1875;-64
2022/09/11 01:50:01;;;;;;;;;;;;;;;13.69;87.25;96954.59;30002;983;1880;-61
2022/09/11 01:50:34;;;;;;;;;;;;;;;13.73;87.03;96952.84;30002;983;1884;-63
2022/09/11 01:51:07;;;;;;;;;;;;;;;13.71;86.71;96952.37;30002;983;1880;-64
2022/09/11 01:51:39;;;;;;;;;;;;;;;13.71;86.88;96955.09;30002;983;1885;-64
2022/09/11 01:52:22;;;;;;;;;;;;;;;13.68;86.83;96950.25;30002;983;1880;-63
2022/09/11 01:52:56;;;;;;;;;;;;;;;13.68;86.82;96950.25;30002;982;1871;-62
2022/09/11 01:53:32;;;;;;;;;;;;;;;13.67;86.78;96954.09;30002;982;1871;-63
2022/09/11 01:54:06;;;;;;;;;;;;;;;13.64;87.07;96957.44;30002;982;1884;-63
2022/09/11 01:55:00;;;;;;;;;;;;;;;13.60;87.11;96951.81;30002;982;1880;-63
2022/09/11 01:55:53;;;;;;;;;;;;;;;13.57;88.23;96954.34;30002;982;1880;-65
2022/09/11 01:56:36;;;;;;;;;;;;;;;13.54;88.10;96960.41;30002;983;1866;-62
2022/09/11 01:57:25;;;;;;;;;;;;;;;13.63;87.59;96958.56;30002;983;1875;-63
2022/09/11 01:58:02;;;;;;;;;;;;;;;13.60;87.59;96954.53;30001;983;1867;-59
2022/09/11 01:58:35;;;;;;;;;;;;;;;13.65;87.24;96950.88;30002;983;1875;-63
2022/09/11 01:59:09;;;;;;;;;;;;;;;13.66;86.77;96952.50;30001;983;1880;-65
2022/09/11 01:59:43;;;;;;;;;;;;;;;13.65;87.50;96950.88;30001;983;1884;-61
2022/09/11 02:00:15;;;;;;;;;;;;;;;13.64;87.33;96949.25;30001;982;1880;-63
2022/09/11 02:00:50;;;;;;;;;;;;;;;13.69;87.10;96952.66;30001;982;1884;-63
2022/09/11 02:01:23;;;;;;;;;;;;;;;13.69;86.61;96947.22;30001;982;1880;-65
2022/09/11 02:02:00;;;;;;;;;;;;;;;13.66;86.99;96952.50;30001;982;1885;-63
2022/09/11 02:02:36;;;;;;;;;;;;;;;13.65;87.14;96956.31;30001;982;1867;-64
2022/09/11 02:03:13;;;;;;;;;;;;;;;13.63;87.63;96953.09;30001;982;1876;-62
2022/09/11 02:03:49;;;;;;;;;;;;;;;13.61;87.46;96949.88;30001;983;1879;-62
2022/09/11 02:04:24;;;;;;;;;;;;;;;13.59;87.77;96952.91;30001;983;1884;-63
2022/09/11 02:05:02;;;;;;;;;;;;;;;13.58;87.66;96954.03;30001;983;1880;-65
2022/09/11 02:05:37;;;;;;;;;;;;;;;13.64;87.43;96955.53;30001;983;1884;-64
2022/09/11 02:06:10;;;;;;;;;;;;;;;13.61;87.20;96950.69;30001;983;1880;-63
2022/09/11 02:06:58;;;;;;;;;;;;;;;13.60;87.23;96953.72;30001;983;1885;-61
2022/09/11 02:07:41;;;;;;;;;;;;;;;13.57;87.82;96954.34;30001;977;1873;-63
2022/09/11 02:08:18;;;;;;;;;;;;;;;13.59;88.14;96954.84;30001;982;1876;-68
2022/09/11 02:08:55;;;;;;;;;;;;;;;13.65;87.10;96951.69;30001;982;1881;-66
2022/09/11 02:09:31;;;;;;;;;;;;;;;13.68;87.18;96950.25;30001;982;1885;-64
2022/09/11 02:10:06;;;;;;;;;;;;;;;13.66;87.26;96947.84;30001;982;1867;-64
2022/09/11 02:10:44;;;;;;;;;;;;;;;13.66;87.07;96953.28;30001;982;1876;-63
2022/09/11 02:11:15;;;;;;;;;;;;;;;13.65;87.25;96956.31;30001;983;1879;-63
2022/09/11 02:11:50;;;;;;;;;;;;;;;13.65;87.64;96950.88;30001;983;1884;-64
2022/09/11 02:12:24;;;;;;;;;;;;;;;13.65;87.34;96956.31;30001;983;1880;-61
2022/09/11 02:12:58;;;;;;;;;;;;;;;13.68;86.94;96950.25;30001;983;1885;-62
2022/09/11 02:13:36;;;;;;;;;;;;;;;13.66;86.70;96947.84;30001;983;1880;-63
2022/09/11 02:14:20;;;;;;;;;;;;;;;13.65;87.17;96950.88;30001;983;1884;-63
2022/09/11 02:14:52;;;;;;;;;;;;;;;13.65;87.08;96953.59;30001;983;1867;-63
2022/09/11 02:15:25;;;;;;;;;;;;;;;13.62;87.09;96956.94;30001;982;1876;-63
2022/09/11 02:16:01;;;;;;;;;;;;;;;13.61;87.45;96960.78;30001;982;1880;-63
2022/09/11 02:16:52;;;;;;;;;;;;;;;13.62;87.59;96962.41;30001;982;1884;-64
2022/09/11 02:17:37;;;;;;;;;;;;;;;13.65;87.22;96965.31;30001;982;1858;-64
2022/09/11 02:18:26;;;;;;;;;;;;;;;13.72;86.90;96962.16;30001;982;1872;-63
2022/09/11 02:19:01;;;;;;;;;;;;;;;13.70;86.85;96954.28;30001;983;1867;-65
2022/09/11 02:19:32;;;;;;;;;;;;;;;13.66;86.70;96955.22;30001;983;1866;-62
2022/09/11 02:20:04;;;;;;;;;;;;;;;13.65;86.94;96957.12;30001;983;1866;-68
2022/09/11 02:20:35;;;;;;;;;;;;;;;13.67;86.92;96954.91;30001;983;1880;-64
2022/09/11 02:21:06;;;;;;;;;;;;;;;13.67;87.36;96951.38;30001;983;1875;-65
2022/09/11 02:21:37;;;;;;;;;;;;;;;13.63;87.09;96953.09;30001;983;1880;-67
2022/09/11 02:22:07;;;;;;;;;;;;;;;13.62;87.08;96949.56;30001;983;1876;-62
2022/09/11 02:22:39;;;;;;;;;;;;;;;13.61;87.31;96949.88;30001;983;1867;-63
2022/09/11 02:23:10;;;;;;;;;;;;;;;13.60;87.59;96953.72;30001;982;1867;-65
2022/09/11 02:23:41;;;;;;;;;;;;;;;13.57;87.95;96955.16;30001;982;1880;-64
2022/09/11 02:24:13;;;;;;;;;;;;;;;13.55;87.96;96959.28;30001;982;1876;-64
2022/09/11 02:24:44;;;;;;;;;;;;;;;13.53;88.41;96959.59;30001;982;1867;-63
2022/09/11 02:25:15;;;;;;;;;;;;;;;13.51;88.40;96955.59;30001;983;1866;-63
2022/09/11 02:25:47;;;;;;;;;;;;;;;13.52;88.14;96957.19;30001;983;1879;-68
2022/09/11 02:26:18;;;;;;;;;;;;;;;13.56;87.75;96956.25;30001;983;1875;-64
2022/09/11 02:26:53;;;;;;;;;;;;;;;13.58;88.03;96966.84;30001;983;1879;-64
2022/09/11 02:27:26;;;;;;;;;;;;;;;13.58;87.97;96966.84;30001;983;1876;-64
2022/09/11 02:27:58;;;;;;;;;;;;;;;13.52;88.38;96960.72;30001;983;1880;-64
2022/09/11 02:28:29;;;;;;;;;;;;;;;13.50;88.00;96971.16;30001;983;1875;-63
2022/09/11 02:29:01;;;;;;;;;;;;;;;13.52;88.12;96965.38;30001;983;1867;-65
2022/09/11 02:29:33;;;;;;;;;;;;;;;13.50;88.18;96962.16;30001;983;1867;-64
2022/09/11 02:30:04;;;;;;;;;;;;;;;13.49;88.20;96969.53;30001;983;1867;-63
2022/09/11 02:30:37;;;;;;;;;;;;;;;13.48;88.69;96967.94;30001;982;1867;-63
2022/09/11 02:31:08;;;;;;;;;;;;;;;13.47;88.92;96962.78;30001;982;1880;-63
2022/09/11 02:31:40;;;;;;;;;;;;;;;13.46;88.75;96963.91;30001;982;1863;-66
2022/09/11 02:32:11;;;;;;;;;;;;;;;13.47;88.99;96970.97;30001;982;1872;-65
2022/09/11 02:32:42;;;;;;;;;;;;;;;13.44;89.07;96958.75;30001;982;1876;-64
2022/09/11 02:33:29;;;;;;;;;;;;;;;13.44;89.86;96960.69;30001;983;1879;-65
2022/09/11 02:34:00;;;;;;;;;;;;;;;13.39;90.11;96958.88;30001;983;1876;-62
2022/09/11 02:34:34;;;;;;;;;;;;;;;13.38;90.44;96966.25;30001;983;1880;-64
2022/09/11 02:35:05;;;;;;;;;;;;;;;13.37;90.05;96966.56;30001;983;1862;-63
2022/09/11 02:35:42;;;;;;;;;;;;;;;13.38;90.28;96974.41;30001;983;1871;-64
2022/09/11 02:36:22;;;;;;;;;;;;;;;13.43;89.32;96969.97;30001;983;1876;-66
2022/09/11 02:37:02;;;;;;;;;;;;;;;13.46;89.08;96974.81;30001;983;1880;-76
2022/09/11 02:37:51;;;;;;;;;;;;;;;13.56;88.36;96966.34;30001;983;1862;-63
2022/09/11 02:38:28;;;;;;;;;;;;;;;13.58;87.70;96969.59;30001;982;1871;-61
2022/09/11 02:39:17;;;;;;;;;;;;;;;13.56;87.80;96969.09;30001;982;1876;-64
2022/09/11 02:39:59;;;;;;;;;;;;;;;13.52;88.45;96965.38;30001;982;1872;-64
2022/09/11 02:40:43;;;;;;;;;;;;;;;13.50;88.74;96975.81;30001;983;1862;-63
2022/09/11 02:41:20;;;;;;;;;;;;;;;13.54;88.22;96976.75;30001;983;1871;-63
2022/09/11 02:42:14;;;;;;;;;;;;;;;13.60;87.64;96967.34;30001;983;1876;-63
2022/09/11 02:43:02;;;;;;;;;;;;;;;13.61;87.51;96971.69;30001;983;1862;-64
2022/09/11 02:43:45;;;;;;;;;;;;;;;13.60;87.66;96967.34;30001;983;1867;-61
2022/09/11 02:44:39;;;;;;;;;;;;;;;13.58;88.01;96969.59;30001;983;1880;-63
2022/09/11 02:45:28;;;;;;;;;;;;;;;13.53;87.97;96965.06;30001;983;1871;-63
2022/09/11 02:46:17;;;;;;;;;;;;;;;13.53;88.26;96970.50;30001;982;1871;-64
2022/09/11 02:46:55;;;;;;;;;;;;;;;13.51;88.21;96970.03;30001;982;1876;-63
2022/09/11 02:47:52;;;;;;;;;;;;;;;13.51;88.40;96969.22;30001;982;1867;-64
2022/09/11 02:48:42;;;;;;;;;;;;;;;13.51;88.54;96971.97;30001;983;1862;-66
2022/09/11 02:49:21;;;;;;;;;;;;;;;13.56;87.93;96969.88;30001;983;1871;-63
2022/09/11 02:49:59;;;;;;;;;;;;;;;13.57;88.01;96979.69;30001;983;1875;-63
2022/09/11 02:50:48;;;;;;;;;;;;;;;13.61;87.91;96977.16;30001;983;1867;-63
2022/09/11 02:51:33;;;;;;;;;;;;;;;13.59;88.08;96974.72;30001;983;1867;-64
2022/09/11 02:52:33;;;;;;;;;;;;;;;13.62;88.01;96986.94;30001;983;1880;-65
2022/09/11 02:53:07;;;;;;;;;;;;;;;13.59;87.83;96985.63;30001;982;1872;-64
2022/09/11 02:53:58;;;;;;;;;;;;;;;13.58;88.27;96985.94;30001;982;1880;-63
2022/09/11 02:54:49;;;;;;;;;;;;;;;13.59;88.15;96984.81;30001;982;1876;-62
2022/09/11 02:55:25;;;;;;;;;;;;;;;13.56;88.09;96988.16;30001;982;1876;-64
2022/09/11 02:56:24;;;;;;;;;;;;;;;13.55;88.32;96984.63;30001;983;1862;-63
2022/09/11 02:57:19;;;;;;;;;;;;;;;13.57;88.30;96978.88;30001;983;1867;-62
2022/09/11 02:57:56;;;;;;;;;;;;;;;13.55;88.42;96978.38;30001;983;1875;-63
2022/09/11 02:58:32;;;;;;;;;;;;;;;13.54;88.36;96982.22;30001;983;1880;-65
2022/09/11 02:59:06;;;;;;;;;;;;;;;13.52;88.39;96981.72;30001;983;1875;-64
2022/09/11 02:59:59;;;;;;;;;;;;;;;13.51;88.84;96988.31;30001;982;1880;-62
2022/09/11 03:00:30;;;;;;;;;;;;;;;13.52;88.78;96981.72;30001;982;1876;-64
2022/09/11 03:01:07;;;;;;;;;;;;;;;13.54;88.90;96987.66;30001;982;1867;-62
2022/09/11 03:01:45;;;;;;;;;;;;;;;13.53;88.64;96980.59;30001;982;1868;-64
2022/09/11 03:02:17;;;;;;;;;;;;;;;13.53;88.67;96986.06;30001;982;1867;-63
2022/09/11 03:02:47;;;;;;;;;;;;;;;13.52;88.94;96979.00;30001;982;1867;-64
2022/09/11 03:03:19;;;;;;;;;;;;;;;13.53;89.13;96981.41;30001;983;1879;-64
2022/09/11 03:03:50;;;;;;;;;;;;;;;13.55;88.86;96981.09;30001;983;1875;-63
2022/09/11 03:04:23;;;;;;;;;;;;;;;13.56;88.66;96977.25;30001;983;1866;-63
2022/09/11 03:04:55;;;;;;;;;;;;;;;13.56;88.57;96990.91;30001;983;1867;-62
2022/09/11 03:05:27;;;;;;;;;;;;;;;13.57;88.54;96979.69;30001;983;1867;-63
2022/09/11 03:05:58;;;;;;;;;;;;;;;13.55;88.39;96979.19;30001;983;1867;-65
2022/09/11 03:06:29;;;;;;;;;;;;;;;13.55;88.73;96983.81;30001;983;1880;-63
2022/09/11 03:07:02;;;;;;;;;;;;;;;13.56;88.54;96985.44;30001;983;1876;-63
2022/09/11 03:07:33;;;;;;;;;;;;;;;13.57;88.68;96982.41;30001;982;1867;-67
2022/09/11 03:08:04;;;;;;;;;;;;;;;13.57;88.42;96987.06;30001;982;1867;-66
2022/09/11 03:08:35;;;;;;;;;;;;;;;13.57;88.36;96976.16;30001;982;1880;-63
2022/09/11 03:09:06;;;;;;;;;;;;;;;13.56;88.25;96980.00;30001;982;1863;-64
2022/09/11 03:09:37;;;;;;;;;;;;;;;13.53;88.71;96973.22;30001;982;1872;-64
2022/09/11 03:10:10;;;;;;;;;;;;;;;13.52;88.99;96979.00;30001;982;1876;-65
2022/09/11 03:10:41;;;;;;;;;;;;;;;13.51;89.04;96980.13;30001;983;1880;-63
2022/09/11 03:11:14;;;;;;;;;;;;;;;13.50;88.84;96982.06;30001;983;1875;-62
2022/09/11 03:11:45;;;;;;;;;;;;;;;13.52;89.41;96979.81;30001;983;1880;-64
2022/09/11 03:12:16;;;;;;;;;;;;;;;13.55;89.01;96981.09;30001;983;1875;-63
2022/09/11 03:12:47;;;;;;;;;;;;;;;13.54;89.09;96982.22;30001;983;1880;-63
2022/09/11 03:13:18;;;;;;;;;;;;;;;13.51;88.74;96983.66;30001;983;1876;-63